createdAt,value
2022-11-13T00:00:53.092Z,29.20
2022-11-13T00:03:41.260Z,36.20
2022-11-13T00:06:29.839Z,37.20
2022-11-13T00:09:17.579Z,24.00
2022-11-13T00:12:05.686Z,30.00
2022-11-13T00:14:56.988Z,31.80
2022-11-13T00:17:45.700Z,26.00
2022-11-13T00:20:34.104Z,32.60
2022-11-13T00:23:22.776Z,26.00
2022-11-13T00:26:12.586Z,27.00
2022-11-13T00:29:03.203Z,22.40
2022-11-13T00:31:52.347Z,27.60
2022-11-13T00:34:47.701Z,25.80
2022-11-13T00:37:36.036Z,24.80
2022-11-13T00:40:24.153Z,30.20
2022-11-13T00:43:11.604Z,25.00
2022-11-13T00:45:59.945Z,25.20
2022-11-13T00:48:49.645Z,27.80
2022-11-13T00:51:42.558Z,30.20
2022-11-13T00:54:30.690Z,25.80
2022-11-13T00:57:20.492Z,29.00
2022-11-13T01:00:14.705Z,30.80
2022-11-13T01:03:03.776Z,28.40
2022-11-13T01:05:54.834Z,26.40
2022-11-13T01:08:47.742Z,29.20
2022-11-13T01:11:35.782Z,29.00
2022-11-13T01:14:24.027Z,28.20
2022-11-13T01:17:13.626Z,21.80
2022-11-13T01:20:03.310Z,30.00
2022-11-13T01:22:54.878Z,30.20
2022-11-13T01:25:43.552Z,30.80
2022-11-13T01:28:31.578Z,23.00
2022-11-13T01:31:22.732Z,27.60
2022-11-13T01:34:11.656Z,22.20
2022-11-13T01:37:01.583Z,25.80
2022-11-13T01:39:52.475Z,22.60
2022-11-13T01:42:40.894Z,25.20
2022-11-13T01:46:05.497Z,27.60
2022-11-13T01:48:58.309Z,20.00
2022-11-13T01:51:49.795Z,26.60
2022-11-13T01:54:42.397Z,20.60
2022-11-13T01:57:33.447Z,23.60
2022-11-13T02:00:36.019Z,27.00
2022-11-13T02:03:24.358Z,26.60
2022-11-13T02:06:14.298Z,28.00
2022-11-13T02:09:02.308Z,26.60
2022-11-13T02:11:50.548Z,24.60
2022-11-13T02:14:44.264Z,28.80
2022-11-13T02:17:37.186Z,27.20
2022-11-13T02:20:32.554Z,24.00
2022-11-13T02:23:30.443Z,31.40
2022-11-13T02:26:22.447Z,30.20
2022-11-13T02:29:09.693Z,27.20
2022-11-13T02:31:57.594Z,26.80
2022-11-13T02:34:46.268Z,25.20
2022-11-13T02:37:37.890Z,25.60
2022-11-13T02:40:26.047Z,25.40
2022-11-13T02:43:15.427Z,31.60
2022-11-13T02:46:02.918Z,30.20
2022-11-13T02:48:51.292Z,26.40
2022-11-13T02:51:38.418Z,24.60
2022-11-13T02:54:26.722Z,28.00
2022-11-13T02:57:14.213Z,29.60
2022-11-13T03:00:07.991Z,22.60
2022-11-13T03:03:01.252Z,23.00
2022-11-13T03:05:51.311Z,25.40
2022-11-13T03:08:38.958Z,23.20
2022-11-13T03:11:27.674Z,26.40
2022-11-13T03:14:16.650Z,25.40
2022-11-13T03:17:07.345Z,25.40
2022-11-13T03:19:55.164Z,26.20
2022-11-13T03:22:43.018Z,28.00
2022-11-13T03:25:31.049Z,24.00
2022-11-13T03:28:18.859Z,25.40
2022-11-13T03:31:06.890Z,25.00
2022-11-13T03:33:57.138Z,27.80
2022-11-13T03:36:44.664Z,25.80
2022-11-13T03:40:23.170Z,35.00
2022-11-13T03:43:32.109Z,26.80
2022-11-13T03:46:22.603Z,26.60
2022-11-13T03:49:12.346Z,25.60
2022-11-13T03:52:01.458Z,22.60
2022-11-13T03:54:50.478Z,29.80
2022-11-13T03:57:39.359Z,25.60
2022-11-13T04:00:27.182Z,21.80
2022-11-13T04:03:16.920Z,28.00
2022-11-13T04:06:07.456Z,25.40
2022-11-13T04:08:55.632Z,23.00
2022-11-13T04:11:42.928Z,26.40
2022-11-13T04:14:30.618Z,30.60
2022-11-13T04:17:17.889Z,26.20
2022-11-13T04:20:06.709Z,23.40
2022-11-13T04:22:57.637Z,29.20
2022-11-13T04:25:46.406Z,31.60
2022-11-13T04:28:34.611Z,24.00
2022-11-13T04:31:22.712Z,26.80
2022-11-13T04:34:10.120Z,28.40
2022-11-13T04:36:57.934Z,22.60
2022-11-13T04:39:46.931Z,27.00
2022-11-13T04:42:52.091Z,29.60
2022-11-13T04:45:39.815Z,21.60
2022-11-13T04:48:27.300Z,25.00
2022-11-13T04:51:14.894Z,26.80
2022-11-13T04:54:02.431Z,27.60
2022-11-13T04:56:51.426Z,21.40
2022-11-13T04:59:40.266Z,26.20
2022-11-13T05:02:27.764Z,27.80
2022-11-13T05:05:15.459Z,27.60
2022-11-13T05:08:02.793Z,19.40
2022-11-13T05:10:50.276Z,24.60
2022-11-13T05:13:39.193Z,25.40
2022-11-13T05:16:29.239Z,28.00
2022-11-13T05:19:17.627Z,26.60
2022-11-13T05:22:06.561Z,25.00
2022-11-13T05:24:53.883Z,24.60
2022-11-13T05:27:45.038Z,29.20
2022-11-13T05:30:35.958Z,29.20
2022-11-13T05:33:24.398Z,28.00
2022-11-13T05:36:14.162Z,28.20
2022-11-13T05:39:03.322Z,26.20
2022-11-13T05:41:53.440Z,11.40
2022-11-13T05:44:41.885Z,30.40
2022-11-13T05:47:30.788Z,60.00
2022-11-13T05:50:20.857Z,29.80
2022-11-13T05:53:07.999Z,33.60
2022-11-13T05:55:55.809Z,29.80
2022-11-13T05:58:44.097Z,29.40
2022-11-13T06:01:34.011Z,27.40
2022-11-13T06:04:23.283Z,29.00
2022-11-13T06:07:13.868Z,33.60
2022-11-13T06:10:01.257Z,28.80
2022-11-13T06:12:49.158Z,30.40
2022-11-13T06:15:38.569Z,52.25
2022-11-13T06:18:31.869Z,28.20
2022-11-13T06:21:24.883Z,30.60
2022-11-13T06:24:15.646Z,34.00
2022-11-13T06:27:03.443Z,33.60
2022-11-13T06:29:51.404Z,31.00
2022-11-13T06:32:39.821Z,29.60
2022-11-13T06:35:28.160Z,31.60
2022-11-13T06:38:16.919Z,31.60
2022-11-13T06:41:06.003Z,33.80
2022-11-13T06:43:54.982Z,34.60
2022-11-13T06:46:47.551Z,27.40
2022-11-13T06:49:35.867Z,31.80
2022-11-13T06:52:24.319Z,40.50
2022-11-13T06:55:16.322Z,33.40
2022-11-13T06:58:08.432Z,35.40
2022-11-13T07:00:59.890Z,35.60
2022-11-13T07:03:55.825Z,46.25
2022-11-13T07:06:48.588Z,31.60
2022-11-13T07:09:41.521Z,32.40
2022-11-13T07:12:43.997Z,32.40
2022-11-13T07:15:39.576Z,36.00
2022-11-13T07:18:28.703Z,67.25
2022-11-13T07:21:31.011Z,34.25
2022-11-13T07:29:06.622Z,37.80
2022-11-13T07:32:37.395Z,32.00
2022-11-13T07:35:25.622Z,45.25
2022-11-13T07:38:12.850Z,33.40
2022-11-13T07:41:01.097Z,39.60
2022-11-13T07:43:48.284Z,29.60
2022-11-13T07:46:38.476Z,51.50
2022-11-13T07:52:48.061Z,29.20
2022-11-13T07:56:23.837Z,28.80
2022-11-13T07:59:39.291Z,37.80
2022-11-13T08:06:58.009Z,30.40
2022-11-13T08:24:38.890Z,28.00
2022-11-13T09:49:15.118Z,26.40
2022-11-13T09:52:58.490Z,24.80
2022-11-13T09:56:03.102Z,21.40
2022-11-13T10:02:27.447Z,23.40
2022-11-13T10:05:25.143Z,22.60
2022-11-13T10:08:22.634Z,28.40
2022-11-13T10:11:21.213Z,22.40
2022-11-13T10:14:30.452Z,22.60
2022-11-13T10:17:26.839Z,22.00
2022-11-13T10:20:17.519Z,21.60
2022-11-13T10:23:14.528Z,29.20
2022-11-13T10:26:15.386Z,28.60
2022-11-13T10:29:15.207Z,27.60
2022-11-13T10:32:18.884Z,24.60
2022-11-13T10:35:23.698Z,20.60
2022-11-13T10:38:21.704Z,18.20
2022-11-13T10:41:14.051Z,28.20
2022-11-13T10:44:28.197Z,25.00
2022-11-13T10:47:31.229Z,24.20
2022-11-13T10:50:28.361Z,26.00
2022-11-13T10:53:23.063Z,23.40
2022-11-13T10:56:15.806Z,24.40
2022-11-13T10:59:12.874Z,28.40
2022-11-13T11:02:17.519Z,25.60
2022-11-13T11:05:14.823Z,26.20
2022-11-13T11:08:03.140Z,29.60
2022-11-13T11:11:18.058Z,31.20
2022-11-13T11:14:22.409Z,22.40
2022-11-13T11:17:13.425Z,19.40
2022-11-13T11:20:07.404Z,26.00
2022-11-13T11:23:02.375Z,19.60
2022-11-13T11:25:59.833Z,25.20
2022-11-13T11:28:56.140Z,23.60
2022-11-13T11:31:51.925Z,22.80
2022-11-13T11:34:44.154Z,21.00
2022-11-13T11:37:40.903Z,23.00
2022-11-13T11:40:32.912Z,24.00
2022-11-13T11:43:31.302Z,22.60
2022-11-13T11:46:30.591Z,26.80
2022-11-13T11:49:17.998Z,37.20
2022-11-13T11:52:21.113Z,21.00
2022-11-13T11:56:22.617Z,24.40
2022-11-13T11:59:53.677Z,21.20
2022-11-13T12:03:15.480Z,4.00
2022-11-13T12:06:16.223Z,27.00
2022-11-13T12:09:14.735Z,26.20
2022-11-13T12:12:14.073Z,23.60
2022-11-13T12:15:06.803Z,22.80
2022-11-13T12:18:06.660Z,24.00
2022-11-13T12:21:04.257Z,31.00
2022-11-13T12:24:07.285Z,23.40
2022-11-13T12:27:15.268Z,33.00
2022-11-13T12:30:16.260Z,20.80
2022-11-13T12:33:16.360Z,25.60
2022-11-13T12:36:05.311Z,24.60
2022-11-13T12:39:02.565Z,30.00
2022-11-13T12:41:55.845Z,24.20
2022-11-13T12:44:53.523Z,24.00
2022-11-13T12:47:44.099Z,28.20
2022-11-13T12:50:33.164Z,23.20
2022-11-13T12:53:28.332Z,25.00
2022-11-13T12:56:37.080Z,25.80
2022-11-13T12:59:36.990Z,22.00
2022-11-13T13:02:47.994Z,23.60
2022-11-13T13:06:26.650Z,16.60
2022-11-13T13:09:30.121Z,25.40
2022-11-13T13:12:25.805Z,25.40
2022-11-13T13:15:27.641Z,24.20
2022-11-13T13:18:28.551Z,25.40
2022-11-13T13:21:20.507Z,26.00
2022-11-13T13:24:10.372Z,29.40
2022-11-13T13:26:58.163Z,28.80
2022-11-13T13:29:46.804Z,32.40
2022-11-13T13:32:44.836Z,22.00
2022-11-13T13:35:44.489Z,26.20
2022-11-13T13:38:52.134Z,25.40
2022-11-13T13:41:54.684Z,28.60
2022-11-13T13:45:01.369Z,26.80
2022-11-13T13:47:53.214Z,26.80
2022-11-13T13:50:45.972Z,24.40
2022-11-13T13:53:39.132Z,25.60
2022-11-13T13:56:28.218Z,30.40
2022-11-13T13:59:18.214Z,29.80
2022-11-13T14:02:16.646Z,30.40
2022-11-13T14:05:04.610Z,31.20
2022-11-13T14:07:53.716Z,31.20
2022-11-13T14:10:43.796Z,33.60
2022-11-13T14:13:52.274Z,32.20
2022-11-13T14:16:56.637Z,34.20
2022-11-13T14:19:52.482Z,31.00
2022-11-13T14:22:44.384Z,30.80
2022-11-13T14:25:33.178Z,41.40
2022-11-13T14:28:24.230Z,27.80
2022-11-13T14:31:15.659Z,32.40
2022-11-13T14:34:15.072Z,31.20
2022-11-13T14:37:22.290Z,37.80
2022-11-13T14:40:21.330Z,33.80
2022-11-13T14:43:15.485Z,35.40
2022-11-13T14:46:32.061Z,37.20
2022-11-13T14:49:29.697Z,40.20
2022-11-13T14:52:27.646Z,39.20
2022-11-13T14:55:29.012Z,43.20
2022-11-13T14:58:29.282Z,35.00
2022-11-13T15:01:21.361Z,34.80
2022-11-13T15:04:09.334Z,34.00
2022-11-13T15:07:01.260Z,44.25
2022-11-13T15:09:51.620Z,46.80
2022-11-13T15:12:41.995Z,46.20
2022-11-13T15:15:42.269Z,49.75
2022-11-13T15:19:07.165Z,47.00
2022-11-13T15:25:14.595Z,48.75
2022-11-13T15:28:09.590Z,51.25
2022-11-13T15:31:17.812Z,41.50
2022-11-13T15:34:21.660Z,50.00
2022-11-13T15:38:05.329Z,41.00
2022-11-13T15:41:01.909Z,46.50
2022-11-13T15:44:16.872Z,50.00
2022-11-13T15:47:38.419Z,36.00
2022-11-13T15:50:47.276Z,61.50
2022-11-13T15:58:03.257Z,41.25
2022-11-13T16:16:22.722Z,80.33
2022-11-13T16:52:17.700Z,47.25
2022-11-13T16:56:01.161Z,47.50
2022-11-13T17:11:20.207Z,53.00
2022-11-13T17:22:30.556Z,48.00
2022-11-13T17:25:30.589Z,46.50
2022-11-13T17:28:28.619Z,51.75
2022-11-13T17:31:26.425Z,55.00
2022-11-13T17:34:22.318Z,52.25
2022-11-13T17:41:58.853Z,58.00
2022-11-13T17:52:23.710Z,54.50
2022-11-13T17:56:22.161Z,50.25
2022-11-13T18:00:04.236Z,42.75
2022-11-13T18:14:50.128Z,55.75
2022-11-13T18:21:38.433Z,58.25
2022-11-13T18:24:26.132Z,57.00
2022-11-13T18:27:13.858Z,61.00
2022-11-13T18:30:03.388Z,53.50
2022-11-13T18:32:50.710Z,57.00
2022-11-13T18:35:38.667Z,59.50
2022-11-13T18:38:25.880Z,61.25
2022-11-13T18:41:15.925Z,60.50
2022-11-13T18:44:03.135Z,84.00
2022-11-13T18:46:52.074Z,64.75
2022-11-13T18:49:39.744Z,61.00
2022-11-13T18:52:27.748Z,56.75
2022-11-13T18:55:14.838Z,53.25
2022-11-13T18:58:03.483Z,55.00
2022-11-13T19:00:50.598Z,55.75
2022-11-13T19:03:41.521Z,54.75
2022-11-13T19:06:39.505Z,55.25
2022-11-13T19:09:27.229Z,59.50
2022-11-13T19:12:14.803Z,57.00
2022-11-13T19:15:03.624Z,57.00
2022-11-13T19:17:52.919Z,54.25
2022-11-13T19:20:41.916Z,54.50
2022-11-13T19:23:29.465Z,56.50
2022-11-13T19:26:17.879Z,52.50
2022-11-13T19:29:05.580Z,55.25
2022-11-13T19:31:56.278Z,58.75
2022-11-13T19:35:05.150Z,57.75
2022-11-13T19:38:00.437Z,50.25
2022-11-13T19:40:49.028Z,58.00
2022-11-13T19:43:37.844Z,50.00
2022-11-13T19:46:25.804Z,50.75
2022-11-13T19:49:13.924Z,47.00
2022-11-13T19:52:01.015Z,55.00
2022-11-13T19:54:50.177Z,48.50
2022-11-13T19:57:40.852Z,49.75
2022-11-13T20:00:32.096Z,46.50
2022-11-13T20:03:20.089Z,51.25
2022-11-13T20:06:14.957Z,52.00
2022-11-13T20:09:03.881Z,41.75
2022-11-13T20:15:17.598Z,47.50
2022-11-13T20:18:08.282Z,50.50
2022-11-13T20:21:00.342Z,45.00
2022-11-13T20:23:48.450Z,48.25
2022-11-13T20:26:38.680Z,47.25
2022-11-13T20:29:28.329Z,45.75
2022-11-13T20:32:16.837Z,38.00
2022-11-13T20:35:07.544Z,39.50
2022-11-13T20:37:56.058Z,39.25
2022-11-13T20:40:43.779Z,49.50
2022-11-13T20:43:34.448Z,40.75
2022-11-13T20:46:23.662Z,42.25
2022-11-13T20:49:11.833Z,48.25
2022-11-13T20:52:02.227Z,43.25
2022-11-13T20:54:49.622Z,39.75
2022-11-13T20:57:40.910Z,54.75
2022-11-13T21:00:29.112Z,48.25
2022-11-13T21:04:03.913Z,44.00
2022-11-13T21:06:52.466Z,42.50
2022-11-13T21:09:40.573Z,45.00
2022-11-13T21:12:27.931Z,41.75
2022-11-13T21:15:16.214Z,44.25
2022-11-13T21:18:04.001Z,47.25
2022-11-13T21:20:53.473Z,42.25
2022-11-13T21:24:02.469Z,44.00
2022-11-13T21:26:51.563Z,45.00
2022-11-13T21:29:44.083Z,42.00
2022-11-13T21:32:34.650Z,46.25
2022-11-13T21:35:22.905Z,46.00
2022-11-13T21:38:13.925Z,34.50
2022-11-13T21:41:19.866Z,41.00
2022-11-13T21:44:10.929Z,48.00
2022-11-13T21:46:58.930Z,48.50
2022-11-13T21:49:48.072Z,47.50
2022-11-13T21:52:36.319Z,16.80
2022-11-13T21:55:25.257Z,38.75
2022-11-13T21:58:13.988Z,42.80
2022-11-13T22:01:02.192Z,39.20
2022-11-13T22:03:49.709Z,25.00
2022-11-13T22:06:37.381Z,36.75
2022-11-13T22:09:25.956Z,42.25
2022-11-13T22:12:17.034Z,44.50
2022-11-13T22:15:04.929Z,42.75
2022-11-13T22:17:53.490Z,43.25
2022-11-13T22:20:44.296Z,44.00
2022-11-13T22:23:32.287Z,49.50
2022-11-13T22:26:42.060Z,44.00
2022-11-13T22:29:31.340Z,44.50
2022-11-13T22:32:19.288Z,45.00
2022-11-13T22:35:07.949Z,50.00
2022-11-13T22:37:56.240Z,50.50
2022-11-13T22:40:46.254Z,48.00
2022-11-13T22:43:35.314Z,49.00
2022-11-13T22:46:26.258Z,49.00
2022-11-13T22:49:14.095Z,49.50
2022-11-13T22:52:01.826Z,45.00
2022-11-13T22:54:49.119Z,46.25
2022-11-13T22:57:37.451Z,47.00
2022-11-13T23:00:26.547Z,49.50
2022-11-13T23:03:15.789Z,45.75
2022-11-13T23:06:03.944Z,47.50
2022-11-13T23:08:52.046Z,44.75
2022-11-13T23:11:42.357Z,47.50
2022-11-13T23:14:29.781Z,44.75
2022-11-13T23:17:19.712Z,47.25
2022-11-13T23:20:11.065Z,47.00
2022-11-13T23:22:58.772Z,51.00
2022-11-13T23:25:47.431Z,50.00
2022-11-13T23:28:38.506Z,43.25
2022-11-13T23:31:26.827Z,49.25
2022-11-13T23:34:38.400Z,49.50
2022-11-13T23:37:27.730Z,44.50
2022-11-13T23:40:16.489Z,48.25
2022-11-13T23:43:16.408Z,50.25
2022-11-13T23:46:04.310Z,45.50
2022-11-13T23:48:55.892Z,52.75
2022-11-13T23:51:47.140Z,49.00
2022-11-13T23:54:37.929Z,52.50
2022-11-13T23:57:27.071Z,42.50
